Time;durP1;ratioP1;P1;durP2;ratioP2;P2;SDS_P1;SDS_P2;PMS_P1;PMS_P2;Temp;Humidity;BMP_temperature;BMP_pressure;BME280_temperature;BME280_humidity;BME280_pressure;Samples;Min_cycle;Max_cycle;Signal;HPM_P1;HPM_P2
2022/01/09 00:01:17;;;;;;;0.10;0.08;;;6.90;94.00;;;;;;9827947;29;20202;-68
2022/01/09 00:06:09;;;;;;;0.17;0.10;;;6.90;94.00;;;;;;9829571;29;20050;-68
2022/01/09 00:10:59;;;;;;;0.30;0.20;;;7.00;94.00;;;;;;9819223;29;20589;-68
2022/01/09 00:15:50;;;;;;;0.10;0.10;;;7.00;93.90;;;;;;9828455;29;20036;-69
2022/01/09 00:20:41;;;;;;;0.43;0.30;;;7.10;94.00;;;;;;9825412;29;20127;-68
2022/01/09 00:25:31;;;;;;;0.20;0.10;;;7.10;94.00;;;;;;9820547;29;20020;-68
2022/01/09 00:30:23;;;;;;;0.20;0.10;;;7.10;94.10;;;;;;9819130;29;20047;-67
2022/01/09 00:35:14;;;;;;;0.20;0.20;;;7.10;94.10;;;;;;9827052;29;20462;-68
2022/01/09 00:40:07;;;;;;;0.10;0.10;;;7.10;94.20;;;;;;9825316;29;20047;-67
2022/01/09 00:44:58;;;;;;;0.25;0.25;;;7.10;94.30;;;;;;9823184;29;20020;-65
2022/01/09 00:49:49;;;;;;;0.00;0.00;;;7.20;94.30;;;;;;9819617;29;20058;-65
2022/01/09 00:54:39;;;;;;;0.15;0.13;;;7.20;94.50;;;;;;9818130;29;20517;-65
2022/01/09 00:59:30;;;;;;;1.05;0.50;;;7.20;94.60;;;;;;9820694;29;20032;-69
2022/01/09 01:04:21;;;;;;;0.10;0.10;;;7.20;94.60;;;;;;9816932;29;20131;-69
2022/01/09 01:09:11;;;;;;;0.40;0.30;;;7.20;94.60;;;;;;9820929;29;20051;-67
2022/01/09 01:14:02;;;;;;;0.75;0.25;;;7.20;94.60;;;;;;9820184;29;20326;-68
2022/01/09 01:18:55;;;;;;;0.17;0.17;;;7.20;94.70;;;;;;9820607;29;20123;-65
2022/01/09 01:23:45;;;;;;;0.40;0.40;;;7.20;94.60;;;;;;9821372;29;20597;-68
2022/01/09 01:28:36;;;;;;;0.15;0.08;;;7.20;94.70;;;;;;9818254;29;20103;-67
2022/01/09 01:33:27;;;;;;;0.15;0.10;;;7.30;94.60;;;;;;9825479;29;20036;-68
2022/01/09 01:38:18;;;;;;;0.82;0.40;;;7.30;94.60;;;;;;9821791;29;20071;-66
2022/01/09 01:43:09;;;;;;;0.22;0.10;;;7.30;94.70;;;;;;9816508;29;20040;-65
2022/01/09 01:48:05;;;;;;;0.28;0.20;;;7.30;94.60;;;;;;9820233;29;20036;-66
2022/01/09 01:52:57;;;;;;;0.32;0.25;;;7.30;94.70;;;;;;9818753;29;20028;-65
2022/01/09 01:57:48;;;;;;;0.10;0.10;;;7.30;94.70;;;;;;9824047;29;20032;-65
2022/01/09 02:02:39;;;;;;;1.55;0.47;;;7.30;94.60;;;;;;9821687;29;20051;-68
2022/01/09 02:07:30;;;;;;;0.30;0.30;;;7.30;94.60;;;;;;9818595;29;20088;-68
2022/01/09 02:12:20;;;;;;;0.20;0.20;;;7.40;94.50;;;;;;9826273;29;20029;-66
2022/01/09 02:17:15;;;;;;;0.65;0.22;;;7.40;94.50;;;;;;9846279;29;20035;-67
2022/01/09 02:22:06;;;;;;;0.43;0.20;;;7.40;94.50;;;;;;9821570;29;20111;-66
2022/01/09 02:26:57;;;;;;;0.20;0.20;;;7.40;94.70;;;;;;9830214;29;20092;-67
2022/01/09 02:31:48;;;;;;;0.08;0.08;;;7.40;94.30;;;;;;9825285;29;20044;-65
2022/01/09 02:36:38;;;;;;;0.00;0.00;;;7.40;94.30;;;;;;9830665;29;20031;-67
2022/01/09 02:41:29;;;;;;;0.10;0.10;;;7.40;94.20;;;;;;9827553;29;20727;-65
2022/01/09 02:51:16;;;;;;;0.13;0.10;;;7.50;94.00;;;;;;9827211;29;20044;-67
2022/01/09 02:56:08;;;;;;;0.00;0.00;;;7.60;94.00;;;;;;9823154;29;20103;-66
2022/01/09 03:00:59;;;;;;;0.03;0.00;;;7.60;93.90;;;;;;9827326;29;20099;-68
2022/01/09 03:05:50;;;;;;;0.10;0.10;;;7.50;93.70;;;;;;9821422;29;20056;-68
2022/01/09 03:10:41;;;;;;;0.08;0.08;;;7.50;93.70;;;;;;9825434;29;20446;-69
2022/01/09 03:15:32;;;;;;;0.20;0.10;;;7.50;93.70;;;;;;9824056;29;20036;-68
2022/01/09 03:20:25;;;;;;;0.75;0.40;;;7.40;93.60;;;;;;9824384;29;20032;-68
2022/01/09 03:25:16;;;;;;;0.00;0.00;;;7.20;93.70;;;;;;9823300;29;20039;-66
2022/01/09 03:30:09;;;;;;;0.32;0.10;;;6.50;94.30;;;;;;9826354;29;20047;-65
2022/01/09 03:35:00;;;;;;;0.22;0.00;;;6.30;94.50;;;;;;9823519;29;20252;-66
2022/01/09 03:39:51;;;;;;;0.00;0.00;;;6.10;94.60;;;;;;9822530;29;20044;-68
2022/01/09 03:44:42;;;;;;;0.10;0.10;;;5.80;94.70;;;;;;9821097;29;20126;-68
2022/01/09 03:49:32;;;;;;;0.47;0.17;;;5.50;95.00;;;;;;9828075;29;20138;-68
2022/01/09 03:54:23;;;;;;;0.20;0.10;;;5.30;95.30;;;;;;9828441;29;20112;-68
2022/01/09 03:59:15;;;;;;;0.80;0.45;;;5.10;95.60;;;;;;9822350;29;20039;-67
2022/01/09 04:04:05;;;;;;;0.00;0.00;;;5.00;95.60;;;;;;9823773;29;20605;-68
2022/01/09 04:08:58;;;;;;;0.00;0.00;;;5.00;95.50;;;;;;9820456;29;20322;-68
2022/01/09 04:13:49;;;;;;;0.17;0.10;;;5.10;95.50;;;;;;9822234;29;20057;-68
2022/01/09 04:18:40;;;;;;;0.00;0.00;;;5.20;95.40;;;;;;9824102;29;20027;-67
2022/01/09 04:23:31;;;;;;;1.00;0.10;;;5.30;95.40;;;;;;9823491;29;20075;-67
2022/01/09 04:28:22;;;;;;;0.10;0.08;;;5.30;95.70;;;;;;9826069;29;20212;-65
2022/01/09 04:33:13;;;;;;;0.43;0.17;;;5.30;95.60;;;;;;9822422;29;20777;-69
2022/01/09 04:38:04;;;;;;;0.00;0.00;;;5.20;95.60;;;;;;9821521;29;20103;-68
2022/01/09 04:42:58;;;;;;;0.55;0.10;;;5.20;95.40;;;;;;9817441;29;20177;-69
2022/01/09 04:47:51;;;;;;;0.15;0.10;;;5.20;95.70;;;;;;9826091;29;20115;-69
2022/01/09 04:52:42;;;;;;;0.15;0.10;;;5.10;95.70;;;;;;9815895;29;20051;-67
2022/01/09 04:57:33;;;;;;;0.00;0.00;;;5.10;95.60;;;;;;9825158;29;20040;-68
2022/01/09 05:02:24;;;;;;;0.00;0.00;;;5.10;95.60;;;;;;9825332;29;20525;-69
2022/01/09 05:07:14;;;;;;;0.00;0.00;;;5.00;95.70;;;;;;9822214;29;20054;-68
2022/01/09 05:12:05;;;;;;;0.10;0.10;;;5.00;95.80;;;;;;9820546;29;20040;-68
2022/01/09 05:16:56;;;;;;;0.00;0.00;;;4.90;95.90;;;;;;9822443;29;20028;-67
2022/01/09 05:21:48;;;;;;;0.20;0.17;;;4.90;95.80;;;;;;9816836;29;20084;-67
2022/01/09 05:26:39;;;;;;;0.10;0.10;;;4.90;95.80;;;;;;9822143;29;20282;-68
2022/01/09 05:31:30;;;;;;;0.00;0.00;;;4.90;95.90;;;;;;9821583;29;20282;-66
2022/01/09 05:36:20;;;;;;;0.17;0.00;;;4.90;95.90;;;;;;9823954;29;20406;-68
2022/01/09 05:41:11;;;;;;;3.78;0.50;;;5.00;95.90;;;;;;9831487;29;20036;-68
2022/01/09 05:46:02;;;;;;;0.50;0.30;;;5.00;95.80;;;;;;9821009;29;20218;-69
2022/01/09 05:50:53;;;;;;;0.08;0.03;;;4.90;95.90;;;;;;9824681;29;20028;-68
2022/01/09 05:55:43;;;;;;;0.60;0.25;;;4.80;96.10;;;;;;9827783;29;20102;-68
2022/01/09 06:00:34;;;;;;;0.38;0.10;;;4.70;96.10;;;;;;9824749;29;20037;-69
2022/01/09 06:05:25;;;;;;;0.45;0.10;;;4.60;96.20;;;;;;9831470;29;20047;-69
2022/01/09 06:10:15;;;;;;;0.40;0.10;;;4.70;96.20;;;;;;9825965;29;20036;-68
2022/01/09 06:15:07;;;;;;;0.13;0.13;;;4.70;96.20;;;;;;9832646;29;20383;-68
2022/01/09 06:19:57;;;;;;;0.10;0.10;;;4.80;96.10;;;;;;9834933;29;20186;-69
2022/01/09 06:24:50;;;;;;;0.50;0.10;;;4.90;96.00;;;;;;9822852;29;20740;-67
2022/01/09 06:29:41;;;;;;;0.10;0.10;;;4.90;96.00;;;;;;9828935;29;20128;-67
2022/01/09 06:34:32;;;;;;;0.10;0.10;;;4.90;96.00;;;;;;9825532;29;20030;-68
2022/01/09 06:39:23;;;;;;;0.28;0.20;;;4.90;96.10;;;;;;9824097;29;20031;-67
2022/01/09 06:44:13;;;;;;;0.30;0.20;;;4.90;96.10;;;;;;9829221;29;20079;-68
2022/01/09 06:49:04;;;;;;;0.80;0.30;;;4.90;96.10;;;;;;9830750;29;20443;-68
2022/01/09 06:53:55;;;;;;;0.10;0.10;;;5.00;96.10;;;;;;9823660;29;20031;-68
2022/01/09 06:58:45;;;;;;;0.20;0.10;;;5.00;96.00;;;;;;9825959;29;20046;-68
2022/01/09 07:03:36;;;;;;;0.28;0.28;;;5.00;96.00;;;;;;9825744;29;20440;-65
2022/01/09 07:08:28;;;;;;;0.30;0.28;;;5.10;96.00;;;;;;9828606;29;20470;-67
2022/01/09 07:13:19;;;;;;;0.60;0.35;;;5.10;95.90;;;;;;9824938;29;20092;-70
2022/01/09 07:18:10;;;;;;;2.35;0.50;;;5.20;95.90;;;;;;9821849;29;20033;-67
2022/01/09 07:23:00;;;;;;;1.88;0.80;;;5.30;95.80;;;;;;9821102;29;20046;-68
2022/01/09 07:27:51;;;;;;;0.85;0.52;;;5.40;95.80;;;;;;9826491;29;20107;-69
2022/01/09 07:32:42;;;;;;;1.67;0.50;;;5.30;95.90;;;;;;9826286;29;20084;-66
2022/01/09 07:37:33;;;;;;;1.60;1.10;;;5.40;96.00;;;;;;9828971;29;20028;-66
2022/01/09 07:42:23;;;;;;;5.03;1.20;;;5.20;95.90;;;;;;9824222;29;20118;-66
2022/01/09 07:47:14;;;;;;;0.70;0.45;;;5.30;95.90;;;;;;9821288;29;20477;-65
2022/01/09 07:52:06;;;;;;;3.03;1.20;;;5.30;96.00;;;;;;9824438;29;20028;-66
2022/01/09 07:56:56;;;;;;;3.65;1.30;;;5.40;95.90;;;;;;9823218;29;20376;-66
2022/01/09 08:01:48;;;;;;;3.45;0.93;;;5.30;95.80;;;;;;9824935;29;20044;-65
2022/01/09 08:06:39;;;;;;;2.50;0.60;;;5.30;95.80;;;;;;9828701;29;20588;-65
2022/01/09 08:11:30;;;;;;;1.60;0.85;;;5.30;95.80;;;;;;9821919;29;20094;-68
2022/01/09 08:16:20;;;;;;;2.08;0.60;;;5.40;95.70;;;;;;9819326;29;20087;-67
2022/01/09 08:21:11;;;;;;;1.58;0.95;;;5.50;95.70;;;;;;9820310;29;20095;-68
2022/01/09 08:26:02;;;;;;;5.60;1.73;;;5.60;95.60;;;;;;9826384;29;20040;-69
2022/01/09 08:30:53;;;;;;;6.72;1.23;;;5.70;95.50;;;;;;9823141;29;20309;-69
2022/01/09 08:35:44;;;;;;;4.43;0.98;;;5.80;95.50;;;;;;9829091;29;20295;-67
2022/01/09 08:40:34;;;;;;;5.53;1.13;;;5.80;95.40;;;;;;9828452;29;20039;-67
2022/01/09 08:45:25;;;;;;;3.10;0.95;;;5.70;95.30;;;;;;9819460;29;20043;-69
2022/01/09 08:50:18;;;;;;;4.15;1.13;;;5.70;95.20;;;;;;9820843;29;20505;-68
2022/01/09 08:55:09;;;;;;;3.35;1.17;;;5.80;95.00;;;;;;9821811;29;20056;-68
2022/01/09 09:00:00;;;;;;;4.80;1.00;;;5.80;95.00;;;;;;9818687;29;20061;-68
2022/01/09 09:04:50;;;;;;;4.50;1.33;;;6.00;94.80;;;;;;9820178;29;20047;-70
2022/01/09 09:09:41;;;;;;;4.03;0.88;;;6.10;94.70;;;;;;9822313;29;20028;-70
2022/01/09 09:14:32;;;;;;;4.80;1.05;;;6.10;94.50;;;;;;9819037;29;20115;-70
2022/01/09 09:19:23;;;;;;;8.27;0.90;;;6.20;94.60;;;;;;9827055;29;20506;-69
2022/01/09 09:24:13;;;;;;;1.50;0.65;;;6.20;94.50;;;;;;9836361;29;20078;-70
2022/01/09 09:29:05;;;;;;;0.75;0.55;;;6.20;94.40;;;;;;9839038;29;20430;-69
2022/01/09 09:33:56;;;;;;;3.05;1.15;;;6.30;94.30;;;;;;9828535;29;20079;-69
2022/01/09 09:38:47;;;;;;;5.13;0.88;;;6.30;94.20;;;;;;9824553;29;20028;-69
2022/01/09 09:43:37;;;;;;;4.20;1.02;;;6.30;94.20;;;;;;9830500;29;20040;-67
2022/01/09 09:48:28;;;;;;;5.78;0.90;;;6.40;94.10;;;;;;9828088;29;20029;-68
2022/01/09 09:53:19;;;;;;;3.90;0.88;;;6.40;93.80;;;;;;9826994;29;20032;-69
2022/01/09 09:58:09;;;;;;;2.50;1.25;;;6.50;93.70;;;;;;9827254;29;20039;-68
2022/01/09 10:03:01;;;;;;;3.78;1.23;;;6.60;93.60;;;;;;9828936;29;20098;-70
2022/01/09 10:07:54;;;;;;;2.60;0.57;;;6.70;93.50;;;;;;9824106;29;20048;-69
2022/01/09 10:12:47;;;;;;;1.23;0.68;;;6.70;93.40;;;;;;9825368;29;20047;-68
2022/01/09 10:17:43;;;;;;;2.58;1.00;;;6.90;93.40;;;;;;9825761;29;20028;-73
2022/01/09 10:22:38;;;;;;;1.85;0.95;;;7.00;93.20;;;;;;9825284;29;20052;-68
2022/01/09 10:27:34;;;;;;;2.83;1.00;;;7.10;93.10;;;;;;9822025;29;20028;-71
2022/01/09 10:32:29;;;;;;;3.28;0.80;;;7.20;93.10;;;;;;9822305;29;20535;-69
2022/01/09 10:37:20;;;;;;;1.90;0.70;;;7.30;93.00;;;;;;9824248;29;20039;-69
2022/01/09 10:42:12;;;;;;;3.60;0.73;;;7.30;93.00;;;;;;9827397;29;20036;-70
2022/01/09 10:47:07;;;;;;;2.25;0.65;;;7.30;92.90;;;;;;9824129;29;20047;-69
2022/01/09 10:52:18;;;;;;;4.50;0.97;;;7.30;92.50;;;;;;9824014;29;20032;-68
2022/01/09 10:57:11;;;;;;;3.25;0.63;;;7.40;91.90;;;;;;9832616;29;20147;-70
2022/01/09 11:02:03;;;;;;;6.40;0.80;;;7.40;92.40;;;;;;9824380;29;20048;-70
2022/01/09 11:06:54;;;;;;;2.00;0.68;;;7.40;92.10;;;;;;9829365;29;20052;-70
2022/01/09 11:11:48;;;;;;;2.83;1.08;;;7.20;92.30;;;;;;9825836;29;20481;-68
2022/01/09 11:16:44;;;;;;;1.90;0.80;;;7.20;92.30;;;;;;9823909;29;20020;-70
2022/01/09 11:21:43;;;;;;;2.05;0.70;;;7.20;92.30;;;;;;9834142;29;20599;-71
2022/01/09 11:26:48;;;;;;;2.35;0.82;;;7.30;92.20;;;;;;9825145;29;20032;-70
2022/01/09 11:31:42;;;;;;;1.42;0.88;;;7.30;92.20;;;;;;9824943;29;20027;-69
2022/01/09 11:37:05;;;;;;;1.20;0.47;;;7.30;92.20;;;;;;9828827;29;20064;-69
2022/01/09 11:42:14;;;;;;;0.45;0.40;;;7.50;92.20;;;;;;9829608;29;20036;-68
2022/01/09 11:47:06;;;;;;;0.50;0.40;;;7.40;92.20;;;;;;9818693;29;20163;-70
2022/01/09 11:51:59;;;;;;;1.60;0.45;;;7.40;92.10;;;;;;9826696;29;20192;-70
2022/01/09 11:57:00;;;;;;;0.93;0.63;;;7.40;92.00;;;;;;9822653;29;20674;-67
2022/01/09 12:01:55;;;;;;;2.88;0.95;;;7.30;92.00;;;;;;9827366;29;20046;-69
2022/01/09 12:06:45;;;;;;;2.75;0.93;;;7.40;91.90;;;;;;9823884;29;20195;-66
2022/01/09 12:12:09;;;;;;;0.60;0.60;;;7.40;91.50;;;;;;9825058;29;20115;-68
2022/01/09 12:17:00;;;;;;;0.90;0.50;;;7.60;91.30;;;;;;9808514;29;20052;-67
2022/01/09 12:21:51;;;;;;;5.00;0.70;;;7.60;91.30;;;;;;9828729;29;20399;-66
2022/01/09 12:26:43;;;;;;;2.80;1.00;;;7.60;91.30;;;;;;9821573;29;20472;-66
2022/01/09 12:31:34;;;;;;;2.92;0.73;;;7.50;91.50;;;;;;9823753;29;20067;-69
2022/01/09 12:36:29;;;;;;;2.10;0.60;;;7.70;91.50;;;;;;9822743;29;20067;-68
2022/01/09 12:41:25;;;;;;;2.03;1.00;;;7.80;91.40;;;;;;9826855;29;20032;-70
2022/01/09 12:46:21;;;;;;;1.70;0.93;;;7.90;91.50;;;;;;9828472;29;20272;-70
2022/01/09 12:51:17;;;;;;;1.88;0.98;;;7.90;91.50;;;;;;9820400;29;20044;-68
2022/01/09 12:56:13;;;;;;;1.02;0.40;;;7.90;91.60;;;;;;9822998;29;20063;-73
2022/01/09 13:01:24;;;;;;;1.58;1.35;;;7.90;91.40;;;;;;9830005;29;20064;-69
2022/01/09 13:06:20;;;;;;;3.33;0.80;;;7.80;91.20;;;;;;9830133;29;20043;-68
2022/01/09 13:11:13;;;;;;;1.00;0.65;;;7.90;90.90;;;;;;9822599;29;20147;-70
2022/01/09 13:16:16;;;;;;;1.17;0.70;;;8.00;90.50;;;;;;9825450;29;20491;-69
2022/01/09 13:21:25;;;;;;;0.77;0.43;;;8.00;90.40;;;;;;9821270;29;20522;-68
2022/01/09 13:26:17;;;;;;;3.60;0.95;;;7.90;90.50;;;;;;9818408;29;20035;-69
2022/01/09 13:31:07;;;;;;;1.55;0.55;;;7.90;90.40;;;;;;9815107;29;20525;-71
2022/01/09 13:35:58;;;;;;;2.90;0.50;;;7.90;89.80;;;;;;9811272;29;20036;-70
2022/01/09 13:40:49;;;;;;;2.25;0.40;;;7.90;89.90;;;;;;9816200;29;20127;-68
2022/01/09 13:45:41;;;;;;;2.22;0.70;;;7.80;89.80;;;;;;9817601;29;20402;-66
2022/01/09 13:50:34;;;;;;;1.00;0.70;;;7.70;90.10;;;;;;9818960;29;20384;-66
2022/01/09 13:55:29;;;;;;;0.70;0.45;;;7.70;90.00;;;;;;9812875;29;20040;-65
2022/01/09 14:00:25;;;;;;;0.68;0.68;;;7.80;90.00;;;;;;9818609;29;20123;-64
2022/01/09 14:05:21;;;;;;;1.00;0.80;;;7.80;90.00;;;;;;9813765;29;20049;-65
2022/01/09 14:10:11;;;;;;;2.35;0.47;;;7.80;89.90;;;;;;9820328;29;20596;-68
2022/01/09 14:15:15;;;;;;;1.92;0.40;;;7.60;89.70;;;;;;9824860;29;20047;-65
2022/01/09 14:20:27;;;;;;;0.73;0.43;;;7.40;89.90;;;;;;9827191;29;20024;-67
2022/01/09 14:25:25;;;;;;;2.80;0.60;;;7.20;90.00;;;;;;9826540;29;20035;-63
2022/01/09 14:30:33;;;;;;;1.17;0.45;;;7.10;90.00;;;;;;9821061;29;20031;-64
2022/01/09 14:35:29;;;;;;;3.53;0.70;;;7.10;89.90;;;;;;9819546;29;20020;-66
2022/01/09 14:40:19;;;;;;;2.85;0.65;;;7.10;89.90;;;;;;9822801;29;20058;-66
2022/01/09 14:45:10;;;;;;;4.32;1.05;;;7.20;89.80;;;;;;9817318;29;20040;-66
2022/01/09 14:50:05;;;;;;;1.42;1.00;;;7.20;89.80;;;;;;9821310;29;20024;-66
2022/01/09 14:54:55;;;;;;;5.40;1.67;;;7.10;89.90;;;;;;9819459;29;20036;-67
2022/01/09 14:59:46;;;;;;;2.40;0.88;;;7.10;89.90;;;;;;9838992;29;20055;-67
2022/01/09 15:04:36;;;;;;;2.35;0.57;;;7.20;89.80;;;;;;9826455;29;20110;-68
2022/01/09 15:09:27;;;;;;;1.40;0.70;;;7.10;89.80;;;;;;9822270;29;20098;-62
2022/01/09 15:14:19;;;;;;;3.83;0.73;;;7.10;90.00;;;;;;9820907;29;20111;-65
2022/01/09 15:19:10;;;;;;;3.08;1.30;;;7.10;89.90;;;;;;9815880;29;20048;-67
2022/01/09 15:24:01;;;;;;;1.98;1.10;;;7.10;89.90;;;;;;9825378;29;20044;-66
2022/01/09 15:28:51;;;;;;;1.45;1.33;;;6.90;90.00;;;;;;9818870;29;20032;-66
2022/01/09 15:33:42;;;;;;;4.03;1.38;;;6.90;90.10;;;;;;9823573;29;20055;-67
2022/01/09 15:38:33;;;;;;;1.73;0.98;;;6.90;90.10;;;;;;9820981;29;20506;-66
2022/01/09 15:43:24;;;;;;;3.47;1.30;;;6.90;90.20;;;;;;9820865;29;20102;-66
2022/01/09 15:48:15;;;;;;;3.83;1.10;;;6.80;90.20;;;;;;9822669;29;20024;-66
2022/01/09 15:53:06;;;;;;;3.10;1.20;;;6.80;90.30;;;;;;9821358;29;20047;-67
2022/01/09 15:57:58;;;;;;;5.93;1.85;;;6.70;90.30;;;;;;9823234;29;20635;-66
2022/01/09 16:02:50;;;;;;;3.30;0.82;;;6.70;90.30;;;;;;9816380;29;20191;-65
2022/01/09 16:07:41;;;;;;;2.92;1.40;;;6.60;90.20;;;;;;9818543;29;20092;-64
2022/01/09 16:12:35;;;;;;;1.55;1.00;;;6.70;90.30;;;;;;9821540;29;20538;-64
2022/01/09 16:17:26;;;;;;;3.72;0.95;;;6.70;90.20;;;;;;9819096;29;20024;-65
2022/01/09 16:22:18;;;;;;;1.77;1.00;;;6.60;90.20;;;;;;9820559;29;20402;-67
2022/01/09 16:27:08;;;;;;;5.43;1.48;;;6.50;90.30;;;;;;9818615;29;20375;-68
2022/01/09 16:32:03;;;;;;;8.50;1.45;;;6.40;90.30;;;;;;9826005;29;20028;-62
2022/01/09 16:36:54;;;;;;;5.10;1.48;;;6.40;90.30;;;;;;9821348;29;20607;-65
2022/01/09 16:41:46;;;;;;;4.03;1.38;;;6.30;90.30;;;;;;9819454;29;20211;-65
2022/01/09 16:46:38;;;;;;;6.28;1.80;;;6.30;90.30;;;;;;9817339;29;20098;-62
2022/01/09 16:51:29;;;;;;;3.90;1.45;;;6.40;90.40;;;;;;9817584;29;20446;-65
2022/01/09 16:56:20;;;;;;;3.63;1.13;;;6.40;90.50;;;;;;9816961;29;20411;-61
2022/01/09 17:01:12;;;;;;;3.53;1.13;;;6.40;90.60;;;;;;9817587;29;20415;-64
2022/01/09 17:06:06;;;;;;;3.33;1.27;;;6.40;90.60;;;;;;9816024;29;20036;-64
2022/01/09 17:10:56;;;;;;;2.50;1.33;;;6.20;90.80;;;;;;9816839;29;20276;-62
2022/01/09 17:15:47;;;;;;;3.03;1.30;;;6.20;91.00;;;;;;9812317;29;20274;-65
2022/01/09 17:20:38;;;;;;;5.85;1.50;;;6.30;91.00;;;;;;9813446;29;20554;-62
2022/01/09 17:25:29;;;;;;;2.42;1.15;;;6.30;91.00;;;;;;9821200;29;20109;-65
2022/01/09 17:30:20;;;;;;;5.68;2.58;;;6.30;91.00;;;;;;9824008;29;20032;-65
2022/01/09 17:35:11;;;;;;;8.48;2.85;;;6.30;91.00;;;;;;9815569;29;20042;-64
2022/01/09 17:40:05;;;;;;;3.78;2.05;;;6.50;90.90;;;;;;9825362;29;20107;-66
2022/01/09 17:44:57;;;;;;;6.53;3.00;;;6.50;90.90;;;;;;9821131;29;20063;-63
2022/01/09 17:49:47;;;;;;;5.32;2.63;;;6.60;90.90;;;;;;9827481;29;20028;-64
2022/01/09 17:54:39;;;;;;;8.43;3.67;;;6.60;90.90;;;;;;9825573;29;20088;-66
2022/01/09 17:59:30;;;;;;;4.85;2.60;;;6.60;91.00;;;;;;9822345;29;20024;-66
2022/01/09 18:04:21;;;;;;;7.13;1.98;;;6.60;91.10;;;;;;9823999;29;20131;-69
2022/01/09 18:09:12;;;;;;;3.75;1.70;;;6.50;91.10;;;;;;9829247;29;20459;-67
2022/01/09 18:14:02;;;;;;;4.18;2.00;;;6.50;91.20;;;;;;9821697;29;20036;-67
2022/01/09 18:18:54;;;;;;;10.43;3.75;;;6.40;91.20;;;;;;9822631;29;20032;-66
2022/01/09 18:23:45;;;;;;;11.15;5.82;;;6.50;91.20;;;;;;9822802;29;20127;-64
2022/01/09 18:28:37;;;;;;;6.40;3.58;;;6.60;91.20;;;;;;9825351;29;20107;-65
2022/01/09 18:33:27;;;;;;;14.98;6.28;;;6.60;91.20;;;;;;9824264;29;20028;-64
2022/01/09 18:38:18;;;;;;;20.90;8.80;;;6.60;91.20;;;;;;9829072;29;20034;-62
2022/01/09 18:43:09;;;;;;;37.95;14.73;;;6.50;91.30;;;;;;9824444;29;20032;-62
2022/01/09 18:48:00;;;;;;;18.55;7.72;;;6.50;91.30;;;;;;9820647;29;20139;-66
2022/01/09 18:52:52;;;;;;;7.20;3.30;;;6.40;91.50;;;;;;9826577;29;20032;-66
2022/01/09 18:57:43;;;;;;;6.78;3.28;;;6.30;91.60;;;;;;9820854;29;20039;-66
2022/01/09 19:02:35;;;;;;;7.03;2.45;;;6.30;91.70;;;;;;9822305;29;20046;-66
2022/01/09 19:07:26;;;;;;;6.43;3.30;;;6.30;91.70;;;;;;9823112;29;20063;-63
2022/01/09 19:12:17;;;;;;;5.47;3.15;;;6.30;91.70;;;;;;9819869;29;20044;-66
2022/01/09 19:17:07;;;;;;;8.30;2.60;;;6.20;91.80;;;;;;9826262;29;20743;-64
2022/01/09 19:21:58;;;;;;;5.82;3.03;;;6.10;91.80;;;;;;9827746;29;20466;-66
2022/01/09 19:26:52;;;;;;;7.63;3.05;;;6.10;91.60;;;;;;9825209;29;20399;-66
2022/01/09 19:31:43;;;;;;;7.07;2.35;;;5.80;92.00;;;;;;9828676;29;20414;-67
2022/01/09 19:36:33;;;;;;;7.03;2.72;;;5.60;92.40;;;;;;9830380;29;20032;-68
2022/01/09 19:41:24;;;;;;;5.25;2.08;;;5.50;92.40;;;;;;9814415;29;20484;-64
2022/01/09 19:46:15;;;;;;;4.72;2.38;;;5.50;92.30;;;;;;9819680;29;20041;-65
2022/01/09 19:51:06;;;;;;;4.22;2.35;;;5.60;92.40;;;;;;9829643;29;20079;-66
2022/01/09 19:55:57;;;;;;;5.43;2.92;;;5.60;92.30;;;;;;9827185;29;20403;-67
2022/01/09 20:00:48;;;;;;;3.58;2.58;;;5.70;92.30;;;;;;9822266;29;20380;-66
2022/01/09 20:05:39;;;;;;;3.95;2.95;;;5.90;92.40;;;;;;9824695;29;20050;-66
2022/01/09 20:10:32;;;;;;;4.45;2.45;;;5.90;92.40;;;;;;9829284;29;20024;-65
2022/01/09 20:15:22;;;;;;;5.30;2.80;;;5.90;92.40;;;;;;9822474;29;20048;-65
2022/01/09 20:20:19;;;;;;;7.82;2.70;;;5.60;92.50;;;;;;9828434;29;20031;-65
2022/01/09 20:25:13;;;;;;;5.78;2.03;;;5.40;92.60;;;;;;9823134;29;20493;-66
2022/01/09 20:30:05;;;;;;;5.68;2.53;;;5.40;92.70;;;;;;9829867;29;20041;-65
2022/01/09 20:34:56;;;;;;;7.68;3.90;;;5.40;92.50;;;;;;9823138;29;20031;-66
2022/01/09 20:39:46;;;;;;;8.20;4.38;;;5.60;92.50;;;;;;9828192;29;20526;-68
2022/01/09 20:44:37;;;;;;;5.88;3.03;;;5.60;92.40;;;;;;9823577;29;20056;-67
2022/01/09 20:49:28;;;;;;;3.97;2.00;;;5.60;92.40;;;;;;9819623;29;20036;-68
2022/01/09 20:54:19;;;;;;;15.10;7.88;;;5.50;92.60;;;;;;9820836;29;20404;-68
2022/01/09 20:59:09;;;;;;;13.18;6.38;;;5.60;92.60;;;;;;9820815;29;20028;-67
2022/01/09 21:04:00;;;;;;;5.45;3.20;;;5.60;92.60;;;;;;9822875;29;20056;-65
2022/01/09 21:08:54;;;;;;;5.28;3.28;;;5.80;92.60;;;;;;9821059;29;20024;-67
2022/01/09 21:13:45;;;;;;;7.78;3.10;;;5.80;92.60;;;;;;9809982;29;20126;-63
2022/01/09 21:18:35;;;;;;;6.82;2.88;;;5.90;92.50;;;;;;9816795;29;20155;-67
2022/01/09 21:23:27;;;;;;;6.65;3.58;;;5.90;92.60;;;;;;9817709;29;20051;-67
2022/01/09 21:28:18;;;;;;;4.13;2.83;;;5.90;92.60;;;;;;9817900;29;20040;-66
2022/01/09 21:33:10;;;;;;;8.57;2.65;;;5.90;92.50;;;;;;9813936;29;20044;-66
2022/01/09 21:38:01;;;;;;;3.72;2.90;;;5.90;92.50;;;;;;9816029;29;20108;-67
2022/01/09 21:42:51;;;;;;;3.13;2.20;;;5.90;92.70;;;;;;9814537;29;20180;-68
2022/01/09 21:47:42;;;;;;;5.50;2.58;;;5.90;92.70;;;;;;9817754;29;20029;-69
2022/01/09 21:52:33;;;;;;;8.45;2.28;;;6.00;92.60;;;;;;9815806;29;20047;-71
2022/01/09 21:57:24;;;;;;;4.80;2.33;;;5.90;92.70;;;;;;9818439;29;20032;-72
2022/01/09 22:02:21;;;;;;;6.50;2.70;;;5.90;92.60;;;;;;9811293;29;20498;-71
2022/01/09 22:07:11;;;;;;;3.58;2.00;;;5.80;92.80;;;;;;9815459;29;20045;-63
2022/01/09 22:12:04;;;;;;;3.85;1.88;;;5.50;92.90;;;;;;9820044;29;20036;-65
2022/01/09 22:16:56;;;;;;;4.05;2.10;;;5.40;93.10;;;;;;9820190;29;20111;-69
2022/01/09 22:21:47;;;;;;;3.22;2.45;;;5.30;93.10;;;;;;9817179;29;20051;-65
2022/01/09 22:26:38;;;;;;;4.18;2.38;;;5.40;93.10;;;;;;9816923;29;21989;-66
2022/01/09 22:31:29;;;;;;;6.72;2.30;;;5.50;93.00;;;;;;9823091;29;20024;-68
2022/01/09 22:36:20;;;;;;;2.97;2.22;;;5.50;92.90;;;;;;9824412;29;20067;-69
2022/01/09 22:41:11;;;;;;;5.70;2.63;;;5.50;92.90;;;;;;9823064;29;20040;-65
2022/01/09 22:46:02;;;;;;;4.50;2.28;;;5.30;93.10;;;;;;9820483;29;20549;-69
2022/01/09 22:50:52;;;;;;;5.60;2.88;;;5.20;93.30;;;;;;9824479;29;20036;-69
2022/01/09 22:55:43;;;;;;;6.53;3.28;;;5.20;93.30;;;;;;9819558;29;20028;-69
2022/01/09 23:00:41;;;;;;;5.57;2.63;;;5.20;93.30;;;;;;9824223;29;20028;-67
2022/01/09 23:05:33;;;;;;;4.75;2.90;;;5.30;93.20;;;;;;9816813;29;20048;-74
2022/01/09 23:10:23;;;;;;;3.95;2.45;;;5.30;93.30;;;;;;9823617;29;20075;-73
2022/01/09 23:15:14;;;;;;;6.75;2.67;;;5.30;93.20;;;;;;9820670;29;20040;-76
2022/01/09 23:20:06;;;;;;;3.08;1.90;;;5.30;93.30;;;;;;9828838;29;20095;-75
2022/01/09 23:24:56;;;;;;;5.78;3.05;;;5.30;93.30;;;;;;9822515;29;20044;-71
2022/01/09 23:29:47;;;;;;;4.40;2.65;;;5.10;93.40;;;;;;9828770;29;20061;-71
2022/01/09 23:34:38;;;;;;;6.10;2.70;;;5.10;93.50;;;;;;9817611;29;20312;-75
2022/01/09 23:39:29;;;;;;;7.38;3.20;;;5.10;93.40;;;;;;9822023;29;20036;-75
2022/01/09 23:44:19;;;;;;;7.05;2.92;;;5.20;93.30;;;;;;9821570;29;20546;-75
2022/01/09 23:54:22;;;;;;;5.15;2.88;;;5.20;93.50;;;;;;9819810;29;20090;-74
2022/01/09 23:59:13;;;;;;;3.92;2.65;;;5.20;93.50;;;;;;9828578;29;20067;-77
